Terminal Aerodrome Forecast
Issued by NWS

Current Version | Previous Version | Graphics & Text | Print | Product List | Glossary On
Versions: 1 2 3 4 5 6 7 8 9 10 11 12 13 14 15 16 17 18 19
000
FTUS41 KILN 300503 AAA
TAFLCK
TAF AMD
KLCK 300503Z 3005/3024 17004KT P6SM VCTS SCT050CB BKN070
      TEMPO 3009/3012 5SM BR BKN050
     FM301200 21006KT P6SM BKN040
     FM301900 21008KT P6SM VCSH BKN040=

USA.gov is the U.S. government's official web portal to all federal, state and local government web resources and services.